createdAt,value
2023-04-17T00:00:20.752Z,100975.84
2023-04-17T00:02:47.966Z,100956.81
2023-04-17T00:05:16.889Z,100968.00
2023-04-17T00:07:44.915Z,100972.34
2023-04-17T00:10:12.376Z,100967.13
2023-04-17T00:12:39.299Z,100975.75
2023-04-17T00:15:06.955Z,100972.31
2023-04-17T00:17:33.941Z,100967.94
2023-04-17T00:20:01.184Z,100965.31
2023-04-17T00:22:28.305Z,100967.00
2023-04-17T00:24:55.253Z,100973.81
2023-04-17T00:27:22.267Z,100961.78
2023-04-17T00:29:49.277Z,100971.19
2023-04-17T00:32:16.377Z,100970.31
2023-04-17T00:34:43.428Z,100970.31
2023-04-17T00:37:10.613Z,100970.28
2023-04-17T00:39:37.646Z,100969.44
2023-04-17T00:42:05.043Z,100967.72
2023-04-17T00:44:32.044Z,100975.44
2023-04-17T00:46:59.161Z,100971.13
2023-04-17T00:49:27.540Z,100971.94
2023-04-17T00:51:55.202Z,100980.47
2023-04-17T00:54:23.554Z,100976.16
2023-04-17T00:56:53.417Z,100975.28
2023-04-17T00:59:22.051Z,100987.38
2023-04-17T01:01:49.046Z,100983.88
2023-04-17T01:04:16.193Z,100982.13
2023-04-17T01:06:43.472Z,100983.84
2023-04-17T01:09:12.313Z,100976.06
2023-04-17T01:11:39.665Z,100971.69
2023-04-17T01:14:07.310Z,100978.59
2023-04-17T01:16:34.471Z,100971.69
2023-04-17T01:19:01.607Z,100975.06
2023-04-17T01:21:28.611Z,100971.59
2023-04-17T01:23:56.576Z,100966.34
2023-04-17T01:26:31.720Z,100971.50
2023-04-17T01:29:00.120Z,100980.06
2023-04-17T01:31:29.518Z,100973.22
2023-04-17T01:33:56.719Z,100980.94
2023-04-17T01:36:23.712Z,100971.50
2023-04-17T01:38:50.850Z,100975.84
2023-04-17T01:41:18.867Z,100976.69
2023-04-17T01:43:47.347Z,100973.22
2023-04-17T01:46:14.576Z,100980.13
2023-04-17T01:48:41.772Z,100980.13
2023-04-17T01:51:08.981Z,100979.31
2023-04-17T01:53:36.913Z,100981.91
2023-04-17T01:56:04.046Z,100987.09
2023-04-17T01:58:31.468Z,100991.41
2023-04-17T02:00:59.394Z,100989.59
2023-04-17T02:03:26.801Z,100990.44
2023-04-17T02:05:54.407Z,100986.97
2023-04-17T02:08:21.576Z,101004.16
2023-04-17T02:10:48.592Z,100997.13
2023-04-17T02:13:16.041Z,101008.28
2023-04-17T02:15:43.196Z,101006.53
2023-04-17T02:18:10.466Z,101012.53
2023-04-17T02:20:38.615Z,101009.09
2023-04-17T02:23:07.104Z,101007.31
2023-04-17T02:25:34.747Z,101008.16
2023-04-17T02:28:03.695Z,101007.22
2023-04-17T02:30:31.212Z,101006.41
2023-04-17T02:32:58.958Z,101000.31
2023-04-17T02:35:27.548Z,101007.22
2023-04-17T02:37:56.075Z,100993.47
2023-04-17T02:40:23.874Z,100993.47
2023-04-17T02:42:56.161Z,101002.03
2023-04-17T02:45:23.163Z,101002.03
2023-04-17T02:47:50.254Z,101010.63
2023-04-17T02:50:17.536Z,101005.44
2023-04-17T02:52:58.636Z,101001.94
2023-04-17T02:55:25.736Z,101007.91
2023-04-17T02:57:52.872Z,101010.41
2023-04-17T03:00:20.953Z,101012.06
2023-04-17T03:02:48.370Z,101013.88
2023-04-17T03:05:16.665Z,101013.88
2023-04-17T03:07:43.746Z,101017.34
2023-04-17T03:10:11.145Z,101020.78
2023-04-17T03:12:38.172Z,101012.97
2023-04-17T03:15:07.645Z,101020.81
2023-04-17T03:17:35.947Z,101020.00
2023-04-17T03:20:04.282Z,100986.25
2023-04-17T03:22:31.403Z,101021.81
2023-04-17T03:24:58.453Z,101026.09
2023-04-17T03:27:29.284Z,101018.31
2023-04-17T03:29:56.690Z,101029.50
2023-04-17T03:32:25.903Z,101030.31
2023-04-17T03:34:52.998Z,101023.44
2023-04-17T03:37:20.091Z,101026.00
2023-04-17T03:39:47.333Z,101032.84
2023-04-17T03:42:14.894Z,101028.53
2023-04-17T03:44:41.920Z,101037.88
2023-04-17T03:47:09.957Z,101036.09
2023-04-17T03:49:37.062Z,101036.03
2023-04-17T03:52:04.246Z,101036.81
2023-04-17T03:54:35.909Z,101041.16
2023-04-17T03:57:05.460Z,101047.97
2023-04-17T03:59:33.498Z,101052.25
2023-04-17T04:02:00.855Z,101051.44
2023-04-17T04:04:30.347Z,101050.59
2023-04-17T04:07:06.161Z,101054.81
2023-04-17T04:09:34.281Z,101043.63
2023-04-17T04:12:02.334Z,101054.91
2023-04-17T04:14:32.357Z,101055.72
2023-04-17T04:16:59.368Z,101054.84
2023-04-17T04:19:26.410Z,101058.31
2023-04-17T04:21:53.857Z,101052.28
2023-04-17T04:24:25.765Z,101060.00
2023-04-17T04:26:52.921Z,101053.97
2023-04-17T04:29:19.947Z,101061.78
2023-04-17T04:31:52.790Z,101068.72
2023-04-17T04:34:25.967Z,101061.81
2023-04-17T04:36:53.392Z,101060.94
2023-04-17T04:39:38.146Z,101064.44
2023-04-17T04:42:10.144Z,101073.91
2023-04-17T04:44:54.805Z,101070.44
2023-04-17T04:47:24.321Z,101070.44
2023-04-17T04:49:51.354Z,101068.72
2023-04-17T04:52:21.087Z,101072.13
2023-04-17T04:54:49.451Z,101065.25
2023-04-17T04:57:16.744Z,101065.28
2023-04-17T04:59:46.804Z,101070.50
2023-04-17T05:02:27.490Z,101067.09
2023-04-17T05:04:55.274Z,101070.53
2023-04-17T05:07:22.895Z,101066.25
2023-04-17T05:09:50.429Z,101068.72
2023-04-17T05:12:17.572Z,101067.88
2023-04-17T05:14:45.509Z,101065.09
2023-04-17T05:17:13.586Z,101078.06
2023-04-17T05:19:40.647Z,101073.81
2023-04-17T05:22:09.969Z,101082.59
2023-04-17T05:24:46.015Z,101080.00
2023-04-17T05:27:13.053Z,101082.59
2023-04-17T05:29:40.165Z,101082.53
2023-04-17T05:32:08.006Z,101077.31
2023-04-17T05:34:49.764Z,101094.44
2023-04-17T05:37:20.561Z,101088.44
2023-04-17T05:39:47.693Z,101078.97
2023-04-17T05:42:14.960Z,101092.75
2023-04-17T05:44:41.973Z,101098.03
2023-04-17T05:47:09.087Z,101096.41
2023-04-17T05:49:37.168Z,101099.03
2023-04-17T05:52:05.033Z,101099.13
2023-04-17T05:54:33.368Z,101103.53
2023-04-17T05:57:00.835Z,101102.81
2023-04-17T05:59:28.137Z,101108.97
2023-04-17T06:01:55.528Z,101112.44
2023-04-17T06:04:22.922Z,101108.28
2023-04-17T06:06:51.333Z,101108.34
2023-04-17T06:09:19.420Z,101106.72
2023-04-17T06:11:46.494Z,101104.28
2023-04-17T06:14:13.541Z,101106.09
2023-04-17T06:16:41.181Z,101116.50
2023-04-17T06:19:09.361Z,101109.69
2023-04-17T06:21:36.442Z,101123.50
2023-04-17T06:24:03.577Z,101121.81
2023-04-17T06:26:30.706Z,101126.13
2023-04-17T06:28:57.799Z,101123.47
2023-04-17T06:31:25.887Z,101126.06
2023-04-17T06:33:53.093Z,101121.75
2023-04-17T06:36:24.813Z,101133.81
2023-04-17T06:38:55.831Z,101129.50
2023-04-17T06:41:23.054Z,101133.78
2023-04-17T06:43:50.095Z,101135.53
2023-04-17T06:46:17.065Z,101136.34
2023-04-17T06:48:44.350Z,101133.72
2023-04-17T06:51:11.359Z,101136.31
2023-04-17T06:53:38.459Z,101125.09
2023-04-17T06:56:06.024Z,101133.81
2023-04-17T06:58:33.364Z,101135.59
2023-04-17T07:01:00.453Z,101145.09
2023-04-17T07:03:27.585Z,101141.69
2023-04-17T07:05:54.694Z,101147.84
2023-04-17T07:08:22.618Z,101158.16
2023-04-17T07:10:49.864Z,101153.81
2023-04-17T07:13:16.867Z,101154.72
2023-04-17T07:15:43.999Z,101155.63
2023-04-17T07:18:11.522Z,101160.09
2023-04-17T07:20:38.475Z,101156.69
2023-04-17T07:23:05.613Z,101164.47
2023-04-17T07:25:32.555Z,101159.41
2023-04-17T07:27:59.597Z,101174.09
2023-04-17T07:30:26.809Z,101168.97
2023-04-17T07:32:53.844Z,101167.28
2023-04-17T07:35:21.104Z,101172.44
2023-04-17T07:37:48.079Z,101175.97
2023-04-17T07:40:16.712Z,101176.03
2023-04-17T07:42:43.896Z,101185.56
2023-04-17T07:45:11.576Z,101177.81
2023-04-17T07:47:38.650Z,101183.06
2023-04-17T07:50:06.491Z,101186.56
2023-04-17T07:52:33.724Z,101190.00
2023-04-17T07:55:01.264Z,101170.19
2023-04-17T07:57:28.291Z,101178.94
2023-04-17T07:59:55.931Z,101183.25
2023-04-17T08:02:23.147Z,101181.63
2023-04-17T08:04:52.493Z,101181.66
2023-04-17T08:07:20.406Z,101193.69
2023-04-17T08:09:47.648Z,101191.09
2023-04-17T08:12:14.696Z,101193.69
2023-04-17T08:14:42.223Z,101198.84
2023-04-17T08:17:09.482Z,101198.91
2023-04-17T08:19:36.769Z,101198.84
2023-04-17T08:22:06.345Z,101193.69
2023-04-17T08:24:33.483Z,101204.09
2023-04-17T08:27:00.647Z,101210.97
2023-04-17T08:29:27.881Z,101203.22
2023-04-17T08:32:10.301Z,101207.63
2023-04-17T08:34:40.842Z,101210.34
2023-04-17T08:37:07.811Z,101203.47
2023-04-17T08:40:52.526Z,101213.09
2023-04-17T08:43:21.380Z,101204.78
2023-04-17T08:45:53.885Z,101206.78
2023-04-17T08:48:22.729Z,101205.13
2023-04-17T08:50:51.917Z,101203.50
2023-04-17T08:53:19.876Z,101203.59
2023-04-17T08:55:49.348Z,101205.31
2023-04-17T08:58:16.556Z,101208.75
2023-04-17T09:00:45.398Z,101204.47
2023-04-17T09:03:13.731Z,101214.78
2023-04-17T09:05:46.270Z,101220.75
2023-04-17T09:08:20.982Z,101224.13
2023-04-17T09:10:52.666Z,101224.13
2023-04-17T09:13:25.674Z,101214.69
2023-04-17T09:16:06.979Z,101222.50
2023-04-17T09:18:35.726Z,101221.63
2023-04-17T09:21:04.334Z,101222.44
2023-04-17T09:23:46.575Z,101239.59
2023-04-17T09:26:15.355Z,101236.09
2023-04-17T09:29:00.142Z,101235.19
2023-04-17T09:31:29.084Z,101241.28
2023-04-17T09:34:03.654Z,101232.84
2023-04-17T09:36:37.038Z,101225.16
2023-04-17T09:39:21.390Z,101230.41
2023-04-17T09:41:48.525Z,101223.53
2023-04-17T09:44:27.282Z,101229.56
2023-04-17T09:46:55.005Z,101230.41
2023-04-17T09:49:40.632Z,101230.44
2023-04-17T09:52:07.743Z,101225.25
2023-04-17T09:54:39.303Z,101223.50
2023-04-17T09:57:11.091Z,101234.72
2023-04-17T09:59:42.104Z,101236.44
2023-04-17T10:02:10.369Z,101224.38
2023-04-17T10:04:41.705Z,101233.00
2023-04-17T10:07:09.153Z,101230.41
2023-04-17T10:09:36.306Z,101229.56
2023-04-17T10:12:04.827Z,101216.63
2023-04-17T10:14:34.250Z,101235.63
2023-04-17T10:17:24.899Z,101226.13
2023-04-17T10:19:52.500Z,101227.84
2023-04-17T10:22:19.768Z,101230.44
2023-04-17T10:24:52.162Z,101231.31
2023-04-17T10:27:27.707Z,101231.31
2023-04-17T10:29:59.869Z,101222.69
2023-04-17T10:32:31.663Z,101229.63
2023-04-17T10:34:59.868Z,101221.84
2023-04-17T10:38:03.485Z,101225.34
2023-04-17T10:40:32.015Z,101221.03
2023-04-17T10:43:12.705Z,101221.00
2023-04-17T10:46:16.587Z,101214.09
2023-04-17T10:48:49.845Z,101214.97
2023-04-17T10:51:29.207Z,101214.09
2023-04-17T10:54:05.584Z,101220.16
2023-04-17T10:56:48.870Z,101214.09
2023-04-17T10:59:18.423Z,101212.38
2023-04-17T11:01:48.377Z,101212.38
2023-04-17T11:04:22.570Z,101217.56
2023-04-17T11:06:52.806Z,101217.56
2023-04-17T11:09:25.694Z,101212.38
2023-04-17T11:11:52.832Z,101213.25
2023-04-17T11:14:22.948Z,101218.44
2023-04-17T11:16:51.786Z,101217.56
2023-04-17T11:19:23.625Z,101226.22
2023-04-17T11:21:53.814Z,101227.94
2023-04-17T11:24:24.759Z,101222.72
2023-04-17T11:26:51.992Z,101228.78
2023-04-17T11:29:23.722Z,101225.34
2023-04-17T11:31:56.563Z,101227.94
2023-04-17T11:34:27.133Z,101229.69
2023-04-17T11:36:57.419Z,101221.88
2023-04-17T11:39:26.669Z,101229.66
2023-04-17T11:41:54.312Z,101229.66
2023-04-17T11:44:22.054Z,101222.72
2023-04-17T11:47:01.401Z,101225.31
2023-04-17T11:49:31.079Z,101221.84
2023-04-17T11:52:01.276Z,101230.50
2023-04-17T11:54:29.755Z,101220.13
2023-04-17T11:57:05.202Z,101211.50
2023-04-17T11:59:35.240Z,101224.47
2023-04-17T12:02:04.747Z,101227.94
2023-04-17T12:04:35.162Z,101224.44
2023-04-17T12:07:04.129Z,101218.41
2023-04-17T12:09:32.558Z,101225.31
2023-04-17T12:12:06.984Z,101223.56
2023-04-17T12:14:34.177Z,101227.88
2023-04-17T12:17:01.467Z,101227.00
2023-04-17T12:19:30.011Z,101226.13
2023-04-17T12:21:57.547Z,101224.28
2023-04-17T12:24:25.451Z,101223.41
2023-04-17T12:26:53.354Z,101227.75
2023-04-17T12:29:29.405Z,101218.28
2023-04-17T12:32:04.242Z,101223.50
2023-04-17T12:34:31.437Z,101229.56
2023-04-17T12:36:58.654Z,101226.97
2023-04-17T12:39:25.813Z,101233.00
2023-04-17T12:41:52.963Z,101221.69
2023-04-17T12:44:20.013Z,101223.31
2023-04-17T12:46:47.265Z,101223.31
2023-04-17T12:49:14.699Z,101229.41
2023-04-17T12:51:41.958Z,101219.03
2023-04-17T12:54:09.140Z,101227.72
2023-04-17T12:56:36.550Z,101220.81
2023-04-17T12:59:03.607Z,101226.06
2023-04-17T13:01:30.759Z,101229.53
2023-04-17T13:03:58.084Z,101223.47
2023-04-17T13:06:25.359Z,101228.69
2023-04-17T13:08:52.572Z,101231.25
2023-04-17T13:11:19.542Z,101231.25
2023-04-17T13:13:47.338Z,101232.13
2023-04-17T13:16:14.562Z,101238.22
2023-04-17T13:18:41.669Z,101233.88
2023-04-17T13:21:09.529Z,101230.44
2023-04-17T13:23:36.445Z,101234.75
2023-04-17T13:26:03.684Z,101247.72
2023-04-17T13:28:30.764Z,101246.88
2023-04-17T13:30:57.798Z,101240.81
2023-04-17T13:33:24.922Z,101243.44
2023-04-17T13:35:53.408Z,101236.50
2023-04-17T13:38:20.722Z,101242.59
2023-04-17T13:40:47.805Z,101231.38
2023-04-17T13:43:15.031Z,101245.22
2023-04-17T13:45:43.638Z,101244.34
2023-04-17T13:48:11.641Z,101250.41
2023-04-17T13:50:38.683Z,101239.16
2023-04-17T13:53:05.866Z,101249.50
2023-04-17T13:55:33.306Z,101245.19
2023-04-17T13:58:01.342Z,101240.00
2023-04-17T14:00:28.431Z,101246.94
2023-04-17T14:02:55.856Z,101240.00
2023-04-17T14:05:23.372Z,101246.94
2023-04-17T14:07:50.327Z,101244.34
2023-04-17T14:10:17.463Z,101239.19
2023-04-17T14:12:44.530Z,101248.69
2023-04-17T14:15:11.706Z,101243.50
2023-04-17T14:17:43.272Z,101240.03
2023-04-17T14:20:11.468Z,101243.50
2023-04-17T14:22:38.597Z,101232.22
2023-04-17T14:25:06.187Z,101234.81
2023-04-17T14:27:35.829Z,101238.25
2023-04-17T14:30:02.998Z,101233.03
2023-04-17T14:32:30.165Z,101242.53
2023-04-17T14:34:57.208Z,101245.13
2023-04-17T14:37:24.342Z,101235.66
2023-04-17T14:39:51.471Z,101239.13
2023-04-17T14:42:18.563Z,101238.25
2023-04-17T14:44:45.771Z,101234.81
2023-04-17T14:47:13.361Z,101242.59
2023-04-17T14:49:40.518Z,101242.59
2023-04-17T14:52:07.623Z,101248.66
2023-04-17T14:54:34.724Z,101247.78
2023-04-17T14:57:01.940Z,101253.84
2023-04-17T14:59:29.178Z,101246.06
2023-04-17T15:01:56.441Z,101253.88
2023-04-17T15:04:23.891Z,101243.50
2023-04-17T15:06:50.968Z,101248.69
2023-04-17T15:09:18.021Z,101246.09
2023-04-17T15:11:46.786Z,101249.53
2023-04-17T15:14:13.781Z,101248.69
2023-04-17T15:16:40.818Z,101252.13
2023-04-17T15:19:07.825Z,101266.84
2023-04-17T15:21:34.865Z,101266.81
2023-04-17T15:24:01.878Z,101255.59
2023-04-17T15:26:28.924Z,101252.97
2023-04-17T15:28:55.902Z,101253.81
2023-04-17T15:31:23.429Z,101258.13
2023-04-17T15:33:50.561Z,101246.03
2023-04-17T15:36:17.667Z,101253.81
2023-04-17T15:38:44.718Z,101255.53
2023-04-17T15:41:13.832Z,101257.28
2023-04-17T15:43:40.871Z,101240.81
2023-04-17T15:46:08.423Z,101250.34
2023-04-17T15:48:35.682Z,101252.06
2023-04-17T15:51:04.036Z,101244.28
2023-04-17T15:53:31.856Z,101252.06
2023-04-17T15:55:59.093Z,101259.00
2023-04-17T15:58:26.093Z,101247.75
2023-04-17T16:00:53.276Z,101260.72
2023-04-17T16:03:21.986Z,101258.13
2023-04-17T16:05:49.144Z,101269.34
2023-04-17T16:08:16.350Z,101258.13
2023-04-17T16:10:43.361Z,101264.19
2023-04-17T16:13:10.541Z,101264.16
2023-04-17T16:15:37.565Z,101251.19
2023-04-17T16:18:04.872Z,101261.53
2023-04-17T16:20:32.043Z,101264.13
2023-04-17T16:22:59.329Z,101265.00
2023-04-17T16:25:26.401Z,101264.09
2023-04-17T16:27:53.383Z,101271.84
2023-04-17T16:30:21.216Z,101261.47
2023-04-17T16:32:50.274Z,101271.00
2023-04-17T16:35:17.457Z,101271.00
2023-04-17T16:37:44.504Z,101273.53
2023-04-17T16:40:13.095Z,101277.88
2023-04-17T16:42:41.138Z,101270.94
2023-04-17T16:45:08.517Z,101283.06
2023-04-17T16:47:35.875Z,101283.06
2023-04-17T16:50:03.158Z,101289.09
2023-04-17T16:52:30.408Z,101282.16
2023-04-17T16:54:58.301Z,101289.06
2023-04-17T16:57:25.585Z,101294.19
2023-04-17T16:59:52.702Z,101291.63
2023-04-17T17:02:20.020Z,101301.97
2023-04-17T17:04:47.474Z,101301.03
2023-04-17T17:07:14.791Z,101291.53
2023-04-17T17:09:41.988Z,101305.28
2023-04-17T17:12:09.092Z,101304.41
2023-04-17T17:14:36.370Z,101301.78
2023-04-17T17:17:03.518Z,101312.13
2023-04-17T17:19:30.633Z,101303.47
2023-04-17T17:21:57.714Z,101311.19
2023-04-17T17:24:24.949Z,101313.72
2023-04-17T17:26:52.040Z,101311.97
2023-04-17T17:29:19.343Z,101315.41
2023-04-17T17:31:46.634Z,101322.25
2023-04-17T17:34:25.343Z,101322.13
2023-04-17T17:36:53.455Z,101327.28
2023-04-17T17:39:22.296Z,101327.28
2023-04-17T17:41:49.877Z,101314.22
2023-04-17T17:44:17.043Z,101320.22
2023-04-17T17:46:44.265Z,101323.66
2023-04-17T17:49:11.307Z,101326.19
2023-04-17T17:51:38.374Z,101323.53
2023-04-17T17:54:05.500Z,101339.88
2023-04-17T17:56:32.556Z,101331.19
2023-04-17T17:58:59.620Z,101332.88
2023-04-17T18:01:26.950Z,101326.81
2023-04-17T18:03:54.448Z,101336.28
2023-04-17T18:06:21.836Z,101338.78
2023-04-17T18:08:49.269Z,101348.19
2023-04-17T18:11:16.384Z,101342.16
2023-04-17T18:13:43.480Z,101340.41
2023-04-17T18:16:10.892Z,101341.28
2023-04-17T18:18:39.009Z,101345.53
2023-04-17T18:21:07.443Z,101351.53
2023-04-17T18:23:34.476Z,101353.22
2023-04-17T18:26:02.969Z,101358.34
2023-04-17T18:28:30.095Z,101364.34
2023-04-17T18:30:57.247Z,101365.13
2023-04-17T18:33:24.832Z,101369.38
2023-04-17T18:35:52.066Z,101367.56
2023-04-17T18:38:19.105Z,101381.41
2023-04-17T18:40:46.129Z,101373.59
2023-04-17T18:43:13.184Z,101378.75
2023-04-17T18:45:40.329Z,101380.47
2023-04-17T18:48:07.385Z,101390.81
2023-04-17T18:50:34.657Z,101391.66
2023-04-17T18:53:02.357Z,101399.41
2023-04-17T18:55:29.456Z,101396.84
2023-04-17T18:57:56.610Z,101396.84
2023-04-17T19:00:23.860Z,101407.16
2023-04-17T19:02:51.062Z,101395.03
2023-04-17T19:05:20.457Z,101404.50
2023-04-17T19:07:48.168Z,101401.84
2023-04-17T19:10:15.346Z,101400.09
2023-04-17T19:12:44.104Z,101398.44
2023-04-17T19:15:12.078Z,101406.19
2023-04-17T19:17:39.268Z,101403.56
2023-04-17T19:20:07.217Z,101403.56
2023-04-17T19:22:34.300Z,101404.44
2023-04-17T19:25:01.401Z,101404.38
2023-04-17T19:27:28.448Z,101401.81
2023-04-17T19:29:57.025Z,101399.19
2023-04-17T19:32:24.428Z,101406.09
2023-04-17T19:34:51.707Z,101405.16
2023-04-17T19:37:18.892Z,101406.03
2023-04-17T19:39:46.113Z,101405.13
2023-04-17T19:42:13.271Z,101402.50
2023-04-17T19:44:40.421Z,101408.44
2023-04-17T19:47:07.859Z,101398.03
2023-04-17T19:49:35.407Z,101401.44
2023-04-17T19:52:02.648Z,101404.88
2023-04-17T19:54:29.948Z,101407.44
2023-04-17T19:56:57.229Z,101410.00
2023-04-17T19:59:24.791Z,101410.81
2023-04-17T20:01:52.085Z,101408.25
2023-04-17T20:04:19.408Z,101400.50
2023-04-17T20:06:46.598Z,101398.88
2023-04-17T20:09:14.935Z,101391.03
2023-04-17T20:11:42.845Z,101402.22
2023-04-17T20:14:11.369Z,101391.03
2023-04-17T20:16:38.590Z,101396.16
2023-04-17T20:19:05.648Z,101394.31
2023-04-17T20:21:32.563Z,101397.84
2023-04-17T20:23:59.684Z,101397.81
2023-04-17T20:26:26.726Z,101392.59
2023-04-17T20:28:54.927Z,101397.72
2023-04-17T20:31:22.350Z,101390.75
2023-04-17T20:33:49.694Z,101397.66
2023-04-17T20:36:16.747Z,101397.66
2023-04-17T20:38:44.057Z,101390.69
2023-04-17T20:41:11.084Z,101397.53
2023-04-17T20:43:38.182Z,101385.50
2023-04-17T20:46:07.120Z,101396.69
2023-04-17T20:48:34.298Z,101390.63
2023-04-17T20:51:06.185Z,101399.16
2023-04-17T20:53:33.773Z,101386.28
2023-04-17T20:56:00.797Z,101396.63
2023-04-17T20:58:27.801Z,101394.00
2023-04-17T21:01:01.122Z,101404.41
2023-04-17T21:03:32.993Z,101396.53
2023-04-17T21:06:00.806Z,101396.50
2023-04-17T21:08:27.993Z,101400.03
2023-04-17T21:10:55.076Z,101397.44
2023-04-17T21:13:23.171Z,101395.72
2023-04-17T21:15:50.250Z,101389.66
2023-04-17T21:18:17.268Z,101393.97
2023-04-17T21:20:44.346Z,101402.56
2023-04-17T21:23:11.605Z,101387.03
2023-04-17T21:25:38.508Z,101398.22
2023-04-17T21:28:05.797Z,101407.66
2023-04-17T21:30:32.837Z,101403.31
2023-04-17T21:32:59.844Z,101407.66
2023-04-17T21:35:27.344Z,101408.47
2023-04-17T21:37:54.535Z,101411.06
2023-04-17T21:40:21.603Z,101407.63
2023-04-17T21:42:48.607Z,101402.47
2023-04-17T21:45:16.406Z,101400.72
2023-04-17T21:47:43.463Z,101407.63
2023-04-17T21:50:11.068Z,101412.78
2023-04-17T21:52:38.228Z,101407.63
2023-04-17T21:55:07.850Z,101400.72
2023-04-17T21:57:35.492Z,101403.28
2023-04-17T22:00:05.339Z,101402.41
2023-04-17T22:02:33.691Z,101410.97
2023-04-17T22:05:00.888Z,101403.22
2023-04-17T22:07:27.902Z,101409.25
2023-04-17T22:09:54.906Z,101405.88
2023-04-17T22:12:22.106Z,101410.19
2023-04-17T22:14:49.285Z,101409.34
2023-04-17T22:17:16.290Z,101411.06
2023-04-17T22:19:43.219Z,101406.75
2023-04-17T22:22:10.202Z,101410.97
2023-04-17T22:24:37.209Z,101407.50
2023-04-17T22:27:04.221Z,101404.91
2023-04-17T22:29:31.458Z,101404.03
2023-04-17T22:31:58.496Z,101405.75
2023-04-17T22:34:25.503Z,101413.53
2023-04-17T22:36:52.499Z,101406.59
2023-04-17T22:39:19.665Z,101417.75
2023-04-17T22:41:47.647Z,101414.31
2023-04-17T22:44:14.872Z,101407.31
2023-04-17T22:46:42.146Z,101413.41
2023-04-17T22:49:09.704Z,101420.19
2023-04-17T22:51:36.817Z,101408.94
2023-04-17T22:54:15.008Z,101424.44
2023-04-17T22:56:46.529Z,101408.97
2023-04-17T22:59:13.590Z,101408.06
2023-04-17T23:01:40.703Z,101409.84
2023-04-17T23:04:08.286Z,101413.31
2023-04-17T23:06:35.417Z,101412.41
2023-04-17T23:09:02.411Z,101418.44
2023-04-17T23:11:31.739Z,101413.28
2023-04-17T23:13:58.792Z,101410.69
2023-04-17T23:16:25.923Z,101403.78
2023-04-17T23:18:53.040Z,101405.44
2023-04-17T23:21:19.945Z,101413.22
2023-04-17T23:23:48.389Z,101410.59
2023-04-17T23:26:15.786Z,101407.16
2023-04-17T23:28:43.178Z,101402.91
2023-04-17T23:31:10.159Z,101404.69
2023-04-17T23:33:37.229Z,101398.66
2023-04-17T23:36:04.364Z,101405.53
2023-04-17T23:38:31.345Z,101403.81
2023-04-17T23:40:58.268Z,101407.22
2023-04-17T23:43:25.428Z,101396.09
2023-04-17T23:45:52.388Z,101372.75
2023-04-17T23:48:19.835Z,101396.94
2023-04-17T23:50:46.727Z,101400.38
2023-04-17T23:53:13.625Z,101390.06
2023-04-17T23:55:40.956Z,101396.03
2023-04-17T23:58:08.042Z,101397.81
